Time;durP1;ratioP1;P1;durP2;ratioP2;P2;SDS_P1;SDS_P2;PMS_P1;PMS_P2;Temp;Humidity;BMP_temperature;BMP_pressure;BME280_temperature;BME280_humidity;BME280_pressure;Samples;Min_cycle;Max_cycle;Signal;HPM_P1;HPM_P2
2023/07/29 00:00:10;;;;;;;2.42;1.85;;;;;;;17.07;99.41;100770.56;6138605;23;20026;-78
2023/07/29 00:02:38;;;;;;;1.70;1.60;;;;;;;17.02;99.49;100763.94;6188781;23;20036;-78
2023/07/29 00:05:04;;;;;;;1.88;1.77;;;;;;;17.00;99.70;100761.00;6189596;23;20518;-78
2023/07/29 00:07:31;;;;;;;1.60;1.50;;;;;;;16.97;99.89;100762.69;6188795;23;20032;-78
2023/07/29 00:09:58;;;;;;;1.30;1.20;;;;;;;16.96;99.33;100760.50;6188861;23;20428;-77
2023/07/29 00:12:25;;;;;;;1.63;1.52;;;;;;;16.94;98.70;100754.84;6188862;23;20017;-78
2023/07/29 00:14:51;;;;;;;2.20;1.10;;;;;;;16.91;99.23;100753.88;6189320;23;20048;-78
2023/07/29 00:17:19;;;;;;;1.23;1.20;;;;;;;16.88;99.23;100746.75;6189002;23;20025;-78
2023/07/29 00:19:47;;;;;;;1.83;1.15;;;;;;;16.85;98.67;100745.03;6189306;23;20363;-79
2023/07/29 00:22:13;;;;;;;1.50;1.40;;;;;;;16.82;99.39;100740.63;6163565;23;20017;-78
2023/07/29 00:24:41;;;;;;;1.60;1.38;;;;;;;16.80;99.28;100740.38;6187849;23;20447;-77
2023/07/29 00:27:07;;;;;;;4.30;1.63;;;;;;;16.78;98.88;100734.03;6189512;23;20021;-77
2023/07/29 00:29:34;;;;;;;2.00;1.13;;;;;;;16.76;98.70;100733.78;6152118;23;20448;-77
2023/07/29 00:32:00;;;;;;;1.38;1.27;;;;;;;16.75;99.14;100724.97;6159555;23;20022;-77
2023/07/29 00:34:27;;;;;;;1.00;1.00;;;;;;;16.75;99.69;100711.53;6132460;23;20407;-77
2023/07/29 00:36:54;;;;;;;3.33;1.65;;;;;;;16.74;99.31;100703.94;6133213;23;20507;-77
2023/07/29 00:39:20;;;;;;;3.13;1.45;;;;;;;16.72;100.00;100701.75;6131833;23;20018;-77
2023/07/29 00:41:47;;;;;;;1.60;1.50;;;;;;;16.70;99.48;100716.88;6133150;23;20052;-77
2023/07/29 00:44:13;;;;;;;1.73;1.45;;;;;;;16.65;100.00;100745.94;6132916;23;20029;-77
2023/07/29 00:46:41;;;;;;;2.20;1.30;;;;;;;16.63;100.00;100734.91;6132106;23;20028;-77
2023/07/29 00:49:08;;;;;;;4.13;1.30;;;;;;;16.65;100.00;100745.94;6159473;23;20014;-78
2023/07/29 00:51:34;;;;;;;3.47;1.48;;;;;;;16.65;100.00;100732.50;6158593;23;20154;-77
2023/07/29 00:54:01;;;;;;;2.35;1.45;;;;;;;16.65;100.00;100732.50;6132431;23;20025;-77
2023/07/29 00:56:28;;;;;;;2.75;1.30;;;;;;;16.64;100.00;100720.28;6132134;23;20024;-77
2023/07/29 00:58:58;;;;;;;2.00;1.15;;;;;;;16.63;100.00;100713.41;6132832;23;20049;-77
2023/07/29 01:01:26;;;;;;;1.30;1.20;;;;;;;16.64;100.00;100717.59;6157980;23;20029;-77
2023/07/29 01:03:53;;;;;;;1.33;1.30;;;;;;;16.62;100.00;100705.81;6132709;23;20038;-77
2023/07/29 01:06:44;;;;;;;1.67;1.40;;;;;;;16.61;100.00;100712.41;6132224;23;20546;-77
2023/07/29 01:09:33;;;;;;;4.00;1.20;;;;;;;16.59;100.00;100712.16;6133063;23;20436;-77
2023/07/29 01:12:21;;;;;;;3.85;1.30;;;;;;;16.58;100.00;100713.38;6159334;23;20032;-77
2023/07/29 01:15:01;;;;;;;1.73;1.38;;;;;;;16.51;100.00;100714.56;6159456;23;20073;-76
2023/07/29 01:17:33;;;;;;;3.30;1.42;;;;;;;16.49;100.00;100729.69;6132256;23;20057;-76
2023/07/29 01:20:06;;;;;;;2.92;1.52;;;;;;;16.47;100.00;100716.00;6133011;23;20014;-76
2023/07/29 01:22:35;;;;;;;1.52;1.42;;;;;;;16.45;100.00;100719.16;6158181;23;20024;-76
2023/07/29 01:25:02;;;;;;;1.83;1.35;;;;;;;16.43;100.00;100718.91;6132469;23;20026;-76
2023/07/29 01:27:30;;;;;;;3.80;1.40;;;;;;;16.39;100.00;100715.00;6131484;23;20083;-78
2023/07/29 01:29:58;;;;;;;2.97;1.58;;;;;;;16.37;100.00;100717.44;6132668;23;20057;-77
2023/07/29 01:32:50;;;;;;;2.20;1.58;;;;;;;16.36;100.00;100710.56;6131959;23;20026;-76
2023/07/29 01:35:58;;;;;;;2.97;2.67;;;;;;;16.34;100.00;100716.44;6132640;23;20456;-77
2023/07/29 01:38:31;;;;;;;3.60;1.60;;;;;;;16.33;100.00;100726.44;6053075;23;20018;-77
2023/07/29 01:41:01;;;;;;;1.95;1.85;;;;;;;16.29;100.00;100720.56;6132761;23;20480;-77
2023/07/29 01:43:29;;;;;;;1.95;1.60;;;;;;;16.28;100.00;100721.75;6158247;23;20129;-77
2023/07/29 01:45:56;;;;;;;2.35;1.90;;;;;;;16.28;100.00;100712.97;6159047;23;20028;-77
2023/07/29 01:48:23;;;;;;;1.85;1.75;;;;;;;16.26;100.00;100710.03;6131608;23;20045;-77
2023/07/29 01:50:50;;;;;;;2.55;2.35;;;;;;;16.26;100.00;100705.38;6131695;23;20467;-77
2023/07/29 01:53:17;;;;;;;2.17;2.08;;;;;;;16.25;100.00;100709.28;6159123;23;20018;-77
2023/07/29 01:55:44;;;;;;;4.32;2.17;;;;;;;16.27;100.00;100711.50;6132476;23;20018;-77
2023/07/29 01:58:11;;;;;;;2.33;2.13;;;;;;;16.26;100.00;100705.38;6132092;23;20017;-77
2023/07/29 02:00:39;;;;;;;4.13;2.30;;;;;;;16.28;100.00;100694.91;6131747;23;20026;-77
2023/07/29 02:03:06;;;;;;;2.75;1.98;;;;;;;16.31;100.00;100699.31;6132215;23;20467;-78
2023/07/29 02:05:33;;;;;;;2.95;2.50;;;;;;;16.32;100.00;100694.69;6157640;23;20089;-78
2023/07/29 02:08:00;;;;;;;2.50;2.30;;;;;;;16.34;100.00;100697.63;6159033;23;20041;-76
2023/07/29 02:10:26;;;;;;;3.67;2.42;;;;;;;16.35;100.00;100693.72;6131380;23;20093;-76
2023/07/29 02:12:53;;;;;;;4.43;3.00;;;;;;;16.34;100.00;100692.25;6132345;23;20026;-77
2023/07/29 02:15:20;;;;;;;3.70;2.88;;;;;;;16.33;100.00;100694.19;6131050;23;20024;-77
2023/07/29 02:17:46;;;;;;;3.25;2.80;;;;;;;16.34;100.00;100690.31;6132165;23;20524;-77
2023/07/29 02:20:13;;;;;;;3.35;2.90;;;;;;;16.33;100.00;100686.16;6131530;23;20018;-77
2023/07/29 02:22:40;;;;;;;5.82;2.92;;;;;;;16.32;100.00;100684.66;6158021;23;20029;-77
2023/07/29 02:25:07;;;;;;;4.45;3.28;;;;;;;16.30;100.00;100684.41;6131773;23;20022;-77
2023/07/29 02:27:33;;;;;;;5.93;3.30;;;;;;;16.30;100.00;100681.00;6131919;23;20101;-77
2023/07/29 02:30:00;;;;;;;3.78;2.83;;;;;;;16.28;100.00;100681.47;6132022;23;20026;-77
2023/07/29 02:32:27;;;;;;;3.40;3.10;;;;;;;16.27;100.00;100682.69;6158014;23;20540;-77
2023/07/29 02:34:54;;;;;;;3.90;3.60;;;;;;;16.26;100.00;100689.28;6157655;23;20018;-77
2023/07/29 02:37:21;;;;;;;4.47;3.33;;;;;;;16.25;100.00;100687.81;6131489;23;20468;-77
2023/07/29 02:39:47;;;;;;;9.05;3.17;;;;;;;16.23;100.00;100687.53;6133516;23;20021;-76
2023/07/29 02:42:14;;;;;;;7.95;3.55;;;;;;;16.22;100.00;100675.34;6159862;23;20041;-78
2023/07/29 02:44:41;;;;;;;6.55;3.40;;;;;;;16.20;100.00;100685.81;6159439;23;20076;-76
2023/07/29 02:47:08;;;;;;;5.55;3.47;;;;;;;16.18;100.00;100679.44;6133494;23;20048;-79
2023/07/29 02:49:34;;;;;;;3.88;3.10;;;;;;;16.17;100.00;100672.59;6131841;23;20523;-76
2023/07/29 02:52:01;;;;;;;6.20;3.35;;;;;;;16.16;100.00;100677.25;6159854;23;20024;-78
2023/07/29 02:54:28;;;;;;;5.65;3.70;;;;;;;16.14;100.00;100684.31;6159128;23;20085;-76
2023/07/29 02:56:54;;;;;;;6.70;4.15;;;;;;;16.12;100.00;100674.03;6109183;23;20101;-78
2023/07/29 02:59:21;;;;;;;4.20;3.88;;;;;;;16.11;100.00;100674.53;6159216;23;20129;-78
2023/07/29 03:01:48;;;;;;;4.20;3.80;;;;;;;16.10;100.00;100679.16;6159664;23;20097;-78
2023/07/29 03:04:17;;;;;;;4.60;3.85;;;;;;;16.08;100.00;100675.47;6158937;23;20018;-78
2023/07/29 03:06:44;;;;;;;4.53;3.78;;;;;;;16.06;100.00;100678.63;6159756;23;20014;-78
2023/07/29 03:09:11;;;;;;;4.55;3.88;;;;;;;16.04;100.00;100678.38;6159660;23;20427;-78
2023/07/29 03:11:37;;;;;;;7.72;4.05;;;;;;;16.02;100.00;100660.06;6132519;23;20030;-78
2023/07/29 03:14:04;;;;;;;4.43;4.03;;;;;;;16.02;100.00;100660.06;6159764;23;20020;-78
2023/07/29 03:16:31;;;;;;;5.97;3.75;;;;;;;16.02;100.00;100652.00;6158952;23;20103;-78
2023/07/29 03:19:00;;;;;;;7.63;4.25;;;;;;;16.01;100.00;100658.59;6132665;23;20488;-78
2023/07/29 03:21:26;;;;;;;8.20;4.32;;;;;;;16.01;100.00;100661.28;6158811;23;20029;-78
2023/07/29 03:23:53;;;;;;;6.05;3.95;;;;;;;16.00;100.00;100659.81;6133133;23;20356;-78
2023/07/29 03:26:20;;;;;;;3.97;3.63;;;;;;;16.00;100.00;100662.50;6133194;23;20022;-77
2023/07/29 03:28:46;;;;;;;7.90;4.07;;;;;;;15.99;100.00;100668.34;6134056;23;20073;-77
2023/07/29 03:31:13;;;;;;;6.03;3.75;;;;;;;15.99;100.00;100669.06;6160823;23;20082;-78
2023/07/29 03:33:40;;;;;;;4.80;3.63;;;;;;;15.96;100.00;100664.69;6132528;23;20448;-78
2023/07/29 03:36:07;;;;;;;6.57;4.25;;;;;;;15.98;100.00;100666.88;6160140;23;20014;-78
2023/07/29 03:38:35;;;;;;;5.07;3.75;;;;;;;15.98;100.00;100666.88;6133713;23;20018;-77
2023/07/29 03:41:02;;;;;;;6.20;3.80;;;;;;;15.97;100.00;100660.03;6133739;23;20026;-77
2023/07/29 03:43:29;;;;;;;3.97;3.40;;;;;;;15.96;100.00;100662.00;6132620;23;20048;-77
2023/07/29 03:45:58;;;;;;;5.18;3.75;;;;;;;15.96;100.00;100658.56;6132201;23;20018;-77
2023/07/29 03:48:25;;;;;;;4.35;4.03;;;;;;;15.97;100.00;100665.41;6158726;23;20014;-76
2023/07/29 03:50:51;;;;;;;4.88;3.95;;;;;;;15.96;100.00;100670.06;6158985;23;20073;-76
2023/07/29 03:53:18;;;;;;;6.75;4.05;;;;;;;15.95;100.00;100665.91;6132564;23;20018;-76
2023/07/29 03:55:45;;;;;;;5.38;3.75;;;;;;;15.95;100.00;100670.53;6132847;23;20464;-77
2023/07/29 03:58:12;;;;;;;4.32;3.30;;;;;;;15.92;100.00;100671.47;6159823;23;20014;-77
2023/07/29 04:00:39;;;;;;;4.38;4.00;;;;;;;15.92;100.00;100679.53;6132272;23;20448;-77
2023/07/29 04:03:05;;;;;;;6.82;4.25;;;;;;;15.91;100.00;100678.78;6133037;23;20014;-77
2023/07/29 04:05:33;;;;;;;3.80;3.50;;;;;;;15.88;100.00;100676.34;6131765;23;20052;-77
2023/07/29 04:07:59;;;;;;;7.05;3.70;;;;;;;15.87;100.00;100672.19;6132766;23;20089;-77
2023/07/29 04:10:26;;;;;;;5.57;3.78;;;;;;;15.86;100.00;100679.50;6158870;23;20439;-78
2023/07/29 04:12:52;;;;;;;4.15;3.28;;;;;;;15.85;100.00;100677.28;6133103;23;20018;-78
2023/07/29 04:15:19;;;;;;;4.00;3.25;;;;;;;15.84;100.00;100681.91;6157844;23;20440;-77
2023/07/29 04:17:46;;;;;;;3.30;3.00;;;;;;;15.81;100.00;100677.50;6132613;23;20436;-78
2023/07/29 04:20:12;;;;;;;4.22;3.03;;;;;;;15.81;100.00;100668.72;6132835;23;20483;-77
2023/07/29 04:22:39;;;;;;;2.80;2.60;;;;;;;15.82;100.00;100665.56;6159132;23;20018;-78
2023/07/29 04:25:06;;;;;;;4.38;2.45;;;;;;;15.82;100.00;100659.44;6133012;23;20105;-77
2023/07/29 04:27:33;;;;;;;3.13;2.60;;;;;;;15.82;100.00;100659.44;6132166;23;20036;-77
2023/07/29 04:29:59;;;;;;;2.75;2.55;;;;;;;15.83;100.00;100667.03;6173230;23;20428;-78
2023/07/29 04:32:26;;;;;;;2.58;2.45;;;;;;;15.84;100.00;100662.38;6188682;23;20018;-77
2023/07/29 04:34:53;;;;;;;4.15;2.58;;;;;;;15.83;100.00;100677.75;6189602;23;20017;-78
2023/07/29 04:37:19;;;;;;;2.30;2.15;;;;;;;15.84;100.00;100673.88;6162095;23;20411;-78
2023/07/29 04:39:46;;;;;;;2.72;2.33;;;;;;;15.86;100.00;100676.06;6162893;23;20089;-77
2023/07/29 04:42:13;;;;;;;2.40;2.20;;;;;;;15.83;100.00;100667.03;6162580;23;20067;-77
2023/07/29 04:44:41;;;;;;;4.35;2.35;;;;;;;15.83;100.00;100667.03;6187916;23;20018;-77
2023/07/29 04:47:08;;;;;;;2.47;2.28;;;;;;;15.84;100.00;100668.50;6162417;23;20507;-78
2023/07/29 04:49:34;;;;;;;3.10;2.25;;;;;;;15.83;100.00;100674.34;6188422;23;20018;-77
2023/07/29 04:52:01;;;;;;;2.67;1.92;;;;;;;15.83;100.00;100666.28;6162810;23;20105;-77
2023/07/29 04:54:28;;;;;;;2.53;2.33;;;;;;;15.83;100.00;100674.34;6188454;23;20089;-77
2023/07/29 04:56:54;;;;;;;4.53;2.17;;;;;;;15.82;100.00;100673.59;6162358;23;20467;-78
2023/07/29 04:59:21;;;;;;;2.30;2.10;;;;;;;15.82;100.00;100678.22;6188015;23;20025;-77
2023/07/29 05:01:47;;;;;;;2.90;2.10;;;;;;;15.83;100.00;100675.06;6188677;23;20014;-76
2023/07/29 05:04:15;;;;;;;3.13;2.20;;;;;;;15.87;100.00;100677.53;6190571;23;20202;-77
2023/07/29 05:06:42;;;;;;;2.50;2.30;;;;;;;15.91;100.00;100686.13;6188565;23;20020;-77
2023/07/29 05:09:15;;;;;;;3.88;2.05;;;;;;;15.95;100.00;100687.38;6189580;23;20048;-77
2023/07/29 05:11:45;;;;;;;1.90;1.80;;;;;;;16.01;100.00;100688.13;6189107;23;20092;-77
2023/07/29 05:14:14;;;;;;;2.60;2.40;;;;;;;16.04;100.00;100697.19;6137081;23;20109;-77
2023/07/29 05:16:41;;;;;;;2.20;2.10;;;;;;;16.07;100.00;100690.84;6188735;23;20415;-77
2023/07/29 05:19:08;;;;;;;2.50;2.30;;;;;;;16.09;100.00;100690.38;6162541;23;20030;-77
2023/07/29 05:21:35;;;;;;;4.70;2.50;;;;;;;16.11;100.00;100694.06;6161762;23;20024;-77
2023/07/29 05:24:01;;;;;;;4.82;2.22;;;;;;;16.14;100.00;100697.72;6188987;23;20020;-77
2023/07/29 05:26:28;;;;;;;2.58;2.28;;;;;;;16.18;100.00;100692.88;6163060;23;20018;-77
2023/07/29 05:28:55;;;;;;;2.72;2.17;;;;;;;16.23;100.00;100694.88;6164048;23;20097;-80
2023/07/29 05:31:22;;;;;;;3.25;2.35;;;;;;;16.24;100.00;100691.69;6137167;23;20423;-78
2023/07/29 05:33:48;;;;;;;2.15;2.00;;;;;;;16.29;100.00;100690.28;6162918;23;20027;-78
2023/07/29 05:36:15;;;;;;;2.90;2.55;;;;;;;16.31;100.00;100693.94;6163940;23;20069;-77
2023/07/29 05:38:42;;;;;;;11.20;2.58;;;;;;;16.37;100.00;100693.25;6163406;23;20022;-77
2023/07/29 05:41:08;;;;;;;5.40;2.55;;;;;;;16.40;100.00;100709.13;6163474;23;20021;-77
2023/07/29 05:43:35;;;;;;;2.70;2.50;;;;;;;16.47;100.00;100707.94;6188806;23;20041;-77
2023/07/29 05:46:01;;;;;;;3.05;2.63;;;;;;;16.58;100.00;100716.78;6162985;23;20077;-77
2023/07/29 05:48:28;;;;;;;2.92;2.60;;;;;;;16.77;100.00;100713.75;6162518;23;20472;-77
2023/07/29 05:50:55;;;;;;;3.75;2.83;;;;;;;16.95;100.00;100710.63;6190558;23;20057;-77
2023/07/29 05:53:22;;;;;;;3.00;2.70;;;;;;;16.92;100.00;100706.94;6163045;23;20017;-78
2023/07/29 05:55:49;;;;;;;3.17;2.92;;;;;;;16.90;99.88;100705.94;6163497;23;20057;-78
2023/07/29 05:58:16;;;;;;;3.00;2.70;;;;;;;16.88;100.00;100706.44;6161583;23;20531;-78
2023/07/29 06:00:42;;;;;;;6.45;2.97;;;;;;;16.90;100.00;100705.94;6188129;23;20021;-79
2023/07/29 06:03:09;;;;;;;4.85;2.80;;;;;;;16.91;100.00;100704.75;6162170;23;20014;-77
2023/07/29 06:05:36;;;;;;;7.50;3.53;;;;;;;16.93;100.00;100703.03;6161621;23;20024;-78
2023/07/29 06:08:02;;;;;;;3.45;3.03;;;;;;;17.01;100.00;100706.00;6162127;23;20452;-76
2023/07/29 06:10:29;;;;;;;3.15;2.90;;;;;;;17.05;99.95;100706.50;6160890;23;20014;-78
2023/07/29 06:12:56;;;;;;;3.60;3.30;;;;;;;17.11;98.84;100701.16;6137301;23;20436;-78
2023/07/29 06:15:22;;;;;;;5.07;3.05;;;;;;;17.24;99.58;100704.09;6189226;23;20013;-77
2023/07/29 06:17:50;;;;;;;7.05;3.20;;;;;;;17.61;98.29;100699.25;6162978;23;20026;-78
2023/07/29 06:20:16;;;;;;;5.60;3.08;;;;;;;18.09;95.32;100695.56;6189843;23;20100;-76
2023/07/29 06:22:43;;;;;;;4.05;2.90;;;;;;;18.28;94.69;100701.91;6163295;23;20352;-76
2023/07/29 06:25:10;;;;;;;3.33;3.10;;;;;;;18.56;93.14;100698.41;6163072;23;20021;-75
2023/07/29 06:27:37;;;;;;;7.00;3.45;;;;;;;18.64;91.40;100704.78;6161585;23;20059;-76
2023/07/29 06:30:05;;;;;;;4.97;3.53;;;;;;;18.59;90.98;100705.50;6189714;23;20436;-76
2023/07/29 06:32:32;;;;;;;3.85;3.15;;;;;;;18.57;90.83;100706.00;6189032;23;20041;-76
2023/07/29 06:34:58;;;;;;;4.45;3.42;;;;;;;18.51;91.15;100707.25;6189859;23;20025;-78
2023/07/29 06:37:25;;;;;;;4.15;3.50;;;;;;;18.52;92.24;100714.84;6162829;23;20029;-76
2023/07/29 06:39:51;;;;;;;5.53;3.40;;;;;;;18.57;92.06;100707.97;6162835;23;20062;-75
2023/07/29 06:42:18;;;;;;;3.88;2.92;;;;;;;18.58;91.16;100715.56;6189365;23;20020;-76
2023/07/29 06:44:45;;;;;;;3.97;3.67;;;;;;;18.65;90.52;100706.97;6189284;23;20018;-75
2023/07/29 06:47:12;;;;;;;2.88;2.67;;;;;;;18.62;91.33;100713.38;6189801;23;20092;-76
2023/07/29 06:49:39;;;;;;;6.43;3.30;;;;;;;18.63;91.86;100714.09;6189096;23;20022;-76
2023/07/29 06:52:05;;;;;;;4.57;2.90;;;;;;;18.63;91.61;100709.44;6163429;23;20052;-76
2023/07/29 06:54:32;;;;;;;5.40;3.70;;;;;;;18.72;92.05;100718.47;6188339;23;20014;-76
2023/07/29 06:56:59;;;;;;;6.07;3.90;;;;;;;18.82;91.03;100715.00;6190106;23;20021;-74
2023/07/29 06:59:25;;;;;;;4.55;3.40;;;;;;;18.96;90.84;100718.63;6188870;23;20474;-74
2023/07/29 07:01:52;;;;;;;6.20;3.55;;;;;;;18.83;90.36;100721.84;6163903;23;20052;-75
2023/07/29 07:04:19;;;;;;;5.43;4.22;;;;;;;18.69;90.19;100714.09;6162754;23;20474;-74
2023/07/29 07:06:45;;;;;;;6.57;4.47;;;;;;;18.65;91.00;100715.06;6138364;23;20029;-74
2023/07/29 07:09:12;;;;;;;6.43;4.00;;;;;;;18.75;90.77;100720.91;6189300;23;20041;-74
2023/07/29 07:11:39;;;;;;;4.57;4.28;;;;;;;18.74;90.58;100716.03;6162640;23;20463;-75
2023/07/29 07:14:05;;;;;;;5.85;4.35;;;;;;;18.76;90.81;100716.25;6190022;23;20067;-74
2023/07/29 07:16:32;;;;;;;5.60;3.78;;;;;;;18.77;91.34;100718.47;6188954;23;20032;-75
2023/07/29 07:18:58;;;;;;;5.88;3.92;;;;;;;18.78;90.94;100716.50;6189781;23;20018;-75
2023/07/29 07:21:25;;;;;;;6.78;4.10;;;;;;;18.74;90.99;100727.53;6188787;23;20037;-74
2023/07/29 07:23:51;;;;;;;4.57;3.83;;;;;;;18.73;90.83;100734.16;6162211;23;20033;-74
2023/07/29 07:26:18;;;;;;;6.95;4.00;;;;;;;18.71;91.39;100730.50;6188848;23;20104;-75
2023/07/29 07:28:45;;;;;;;3.78;3.47;;;;;;;18.69;90.99;100728.28;6189613;23;20463;-75
2023/07/29 07:31:12;;;;;;;5.72;4.32;;;;;;;18.67;91.50;100735.41;6189436;23;20018;-75
2023/07/29 07:33:39;;;;;;;4.65;4.28;;;;;;;18.71;91.55;100728.53;6188877;23;20017;-75
2023/07/29 07:36:05;;;;;;;4.40;4.07;;;;;;;18.75;91.57;100734.41;6189637;23;20022;-75
2023/07/29 07:38:32;;;;;;;4.72;4.05;;;;;;;18.81;90.86;100732.41;6188135;23;20079;-78
2023/07/29 07:40:58;;;;;;;4.75;3.97;;;;;;;18.74;90.80;100734.91;6188868;23;20018;-81
2023/07/29 07:43:25;;;;;;;4.82;4.35;;;;;;;18.74;90.67;100738.34;6188978;23;20013;-78
2023/07/29 07:45:58;;;;;;;5.47;4.72;;;;;;;18.82;90.98;100731.16;6189469;23;20100;-77
2023/07/29 07:48:25;;;;;;;5.68;4.55;;;;;;;18.94;91.00;100740.69;6189064;23;20014;-78
2023/07/29 07:50:52;;;;;;;6.35;3.95;;;;;;;19.12;90.69;100728.59;6189546;23;20013;-77
2023/07/29 07:53:19;;;;;;;4.72;4.10;;;;;;;19.37;89.38;100736.78;6187985;23;20069;-77
2023/07/29 07:55:46;;;;;;;4.35;3.95;;;;;;;19.51;88.81;100733.06;6189597;23;20021;-77
2023/07/29 07:58:13;;;;;;;4.55;4.00;;;;;;;19.53;87.69;100725.91;6189603;23;20022;-77
2023/07/29 08:00:39;;;;;;;4.40;4.10;;;;;;;19.54;87.42;100732.06;6188985;23;20024;-77
2023/07/29 08:03:06;;;;;;;4.55;4.18;;;;;;;19.49;87.42;100738.19;6189045;23;20080;-76
2023/07/29 08:05:33;;;;;;;4.47;4.07;;;;;;;19.52;87.17;100737.22;6188351;23;20448;-77
2023/07/29 08:07:59;;;;;;;7.03;4.00;;;;;;;19.52;87.09;100740.66;6188526;23;20021;-77
2023/07/29 08:10:26;;;;;;;4.63;3.58;;;;;;;19.75;86.67;100745.88;6188888;23;20072;-77
2023/07/29 08:12:52;;;;;;;5.47;3.40;;;;;;;20.06;86.32;100744.63;6189656;23;20463;-77
2023/07/29 08:15:19;;;;;;;6.28;3.30;;;;;;;20.17;84.86;100749.94;6188893;23;20021;-77
2023/07/29 08:17:46;;;;;;;4.53;3.85;;;;;;;20.17;82.90;100741.84;6162774;23;20021;-77
2023/07/29 08:20:12;;;;;;;4.38;3.10;;;;;;;20.28;83.46;100741.72;6189317;23;20014;-77
2023/07/29 08:22:39;;;;;;;3.20;2.92;;;;;;;20.46;82.71;100741.06;6188366;23;20466;-77
2023/07/29 08:25:06;;;;;;;3.03;2.72;;;;;;;20.64;82.55;100739.66;6162775;23;20037;-77
2023/07/29 08:27:34;;;;;;;3.28;2.95;;;;;;;20.97;80.48;100739.25;6162290;23;20392;-78
2023/07/29 08:30:01;;;;;;;7.85;2.72;;;;;;;20.80;79.55;100737.97;6189338;23;20089;-78
2023/07/29 08:32:27;;;;;;;4.22;2.70;;;;;;;20.61;80.07;100740.66;6162151;23;20021;-78
2023/07/29 08:34:54;;;;;;;4.07;2.83;;;;;;;20.33;80.43;100748.31;6163183;23;20104;-78
2023/07/29 08:37:21;;;;;;;3.63;3.05;;;;;;;20.22;80.82;100741.78;6161544;23;20033;-77
2023/07/29 08:39:47;;;;;;;3.05;2.85;;;;;;;20.11;81.22;100750.00;6189651;23;20037;-78
2023/07/29 08:42:19;;;;;;;3.10;2.90;;;;;;;20.08;83.08;100748.28;6189405;23;20530;-78
2023/07/29 08:44:48;;;;;;;;;;;;;;;20.09;83.24;100754.44;6189949;23;20037;-77
2023/07/29 08:47:16;;;;;;;6.05;2.92;;;;;;;20.05;83.05;100748.56;6162433;23;20739;-77
2023/07/29 08:49:45;;;;;;;3.22;2.67;;;;;;;20.12;82.87;100751.47;6188914;23;20048;-77
2023/07/29 08:52:13;;;;;;;3.42;2.53;;;;;;;20.10;82.35;100748.53;6188382;23;20443;-78
2023/07/29 08:54:40;;;;;;;2.45;2.25;;;;;;;20.13;82.16;100747.50;6188592;23;20105;-78
2023/07/29 08:57:07;;;;;;;2.58;2.40;;;;;;;20.14;82.23;100748.97;6189308;23;20021;-78
2023/07/29 08:59:33;;;;;;;2.78;2.50;;;;;;;20.17;81.98;100747.97;6162338;23;20022;-77
2023/07/29 09:02:00;;;;;;;3.75;2.22;;;;;;;20.14;80.46;100743.56;6189413;23;20013;-78
2023/07/29 09:04:28;;;;;;;3.28;2.40;;;;;;;20.17;79.96;100745.28;6161824;23;20032;-77
2023/07/29 09:06:56;;;;;;;5.72;3.13;;;;;;;20.19;80.49;100750.91;6188715;23;20053;-77
2023/07/29 09:09:23;;;;;;;2.80;2.60;;;;;;;20.13;81.46;100750.22;6188447;23;20023;-77
2023/07/29 09:11:50;;;;;;;3.10;2.90;;;;;;;20.07;81.91;100759.59;6189174;23;20097;-77
2023/07/29 09:14:17;;;;;;;3.10;2.80;;;;;;;20.45;81.63;100755.81;6162666;23;20540;-77
2023/07/29 09:16:44;;;;;;;2.97;2.63;;;;;;;21.10;78.60;100751.41;6189563;23;20597;-77
2023/07/29 09:19:11;;;;;;;3.03;2.83;;;;;;;21.05;77.60;100752.19;6189386;23;20017;-77
2023/07/29 09:21:40;;;;;;;3.10;2.90;;;;;;;20.91;76.80;100749.41;6187759;23;20033;-77
2023/07/29 09:24:08;;;;;;;5.22;2.83;;;;;;;20.81;77.22;100756.41;6188831;23;20028;-77
2023/07/29 09:26:35;;;;;;;3.22;3.03;;;;;;;20.82;77.77;100751.72;6187999;23;20104;-77
2023/07/29 09:29:02;;;;;;;4.57;3.30;;;;;;;20.81;77.68;100747.56;6188707;23;20022;-77
2023/07/29 09:31:29;;;;;;;3.45;3.15;;;;;;;20.81;77.96;100740.19;6188576;23;20021;-77
2023/07/29 09:33:58;;;;;;;3.35;3.15;;;;;;;20.79;77.83;100753.50;6188760;23;20018;-78
2023/07/29 09:36:24;;;;;;;5.10;3.20;;;;;;;20.64;78.10;100743.09;6136971;23;20470;-77
2023/07/29 09:38:56;;;;;;;4.45;2.85;;;;;;;20.62;79.06;100750.97;6189576;23;20499;-78
2023/07/29 09:41:31;;;;;;;7.55;3.25;;;;;;;20.76;79.34;100751.81;6188238;23;20092;-77
2023/07/29 09:44:03;;;;;;;4.18;3.08;;;;;;;20.84;78.72;100755.38;6189178;23;20352;-77
2023/07/29 09:46:37;;;;;;;3.17;2.88;;;;;;;20.93;76.90;100748.88;6161867;23;20042;-77
2023/07/29 09:49:07;;;;;;;3.28;3.00;;;;;;;20.91;77.67;100741.28;6165415;23;20388;-77
2023/07/29 09:51:39;;;;;;;4.35;3.10;;;;;;;20.88;77.21;100747.72;6164611;23;20024;-78
2023/07/29 09:54:06;;;;;;;4.43;3.45;;;;;;;20.76;77.83;100748.38;6192509;23;20021;-78
2023/07/29 09:56:33;;;;;;;3.30;3.10;;;;;;;20.53;78.39;100753.28;6191742;23;20491;-78
2023/07/29 09:59:01;;;;;;;4.75;3.13;;;;;;;20.36;79.75;100753.44;6165843;23;20017;-78
2023/07/29 10:01:32;;;;;;;3.60;3.13;;;;;;;20.19;82.79;100771.78;6191442;23;20018;-77
2023/07/29 10:04:01;;;;;;;7.80;3.75;;;;;;;19.87;84.93;100760.78;6191566;23;20513;-77
2023/07/29 10:06:29;;;;;;;4.15;3.72;;;;;;;19.73;87.45;100761.84;6191274;23;20017;-77
2023/07/29 10:08:56;;;;;;;5.90;4.05;;;;;;;19.68;88.47;100762.63;6165381;23;20096;-77
2023/07/29 10:11:24;;;;;;;8.30;4.28;;;;;;;19.61;91.03;100751.13;6191373;23;20215;-76
2023/07/29 10:13:51;;;;;;;5.72;4.30;;;;;;;19.58;91.49;100754.84;6192037;23;20021;-75
2023/07/29 10:16:34;;;;;;;;;;;;;;;19.77;90.81;100754.94;6191953;23;20016;-76
2023/07/29 10:19:02;;;;;;;4.78;4.47;;;;;;;19.82;92.31;100761.53;6191540;23;19921;-78
2023/07/29 10:21:29;;;;;;;4.95;4.05;;;;;;;19.79;91.88;100760.56;6191185;23;20013;-76
2023/07/29 10:24:00;;;;;;;4.72;4.35;;;;;;;19.80;92.38;100764.00;6191560;23;20057;-75
2023/07/29 10:26:31;;;;;;;4.63;4.32;;;;;;;19.77;92.93;100759.63;6190703;23;20042;-75
2023/07/29 10:29:04;;;;;;;4.88;4.47;;;;;;;19.65;92.14;100765.09;6191677;23;20013;-75
2023/07/29 10:31:32;;;;;;;5.15;4.75;;;;;;;19.58;94.02;100767.63;6191052;23;20440;-80
2023/07/29 10:33:59;;;;;;;5.28;4.80;;;;;;;19.68;94.71;100768.03;6191298;23;20153;-77
2023/07/29 10:36:27;;;;;;;4.95;4.55;;;;;;;19.76;95.93;100766.97;6190896;23;20013;-75
2023/07/29 10:38:53;;;;;;;5.22;4.80;;;;;;;19.93;95.23;100773.00;6191948;23;20014;-76
2023/07/29 10:41:20;;;;;;;4.93;4.53;;;;;;;20.09;94.91;100773.34;6191219;23;20022;-75
2023/07/29 10:43:47;;;;;;;4.65;4.35;;;;;;;20.09;94.10;100773.34;6191767;23;20025;-75
2023/07/29 10:46:21;;;;;;;5.10;4.70;;;;;;;20.13;94.94;100771.09;6191677;23;20032;-74
2023/07/29 10:48:51;;;;;;;4.90;4.38;;;;;;;20.10;93.95;100767.44;6191492;23;20448;-75
2023/07/29 10:51:26;;;;;;;5.65;4.35;;;;;;;20.13;94.72;100766.44;6191197;23;20422;-75
2023/07/29 10:54:03;;;;;;;5.03;4.57;;;;;;;20.12;95.45;100762.25;6191522;23;20056;-78
2023/07/29 10:56:32;;;;;;;6.30;4.25;;;;;;;20.06;94.26;100758.88;6190776;23;20014;-78
2023/07/29 10:59:19;;;;;;;4.50;4.20;;;;;;;20.12;95.21;100761.53;6190632;23;20088;-78
2023/07/29 11:01:59;;;;;;;4.20;4.00;;;;;;;20.24;96.52;100758.22;6188977;23;20439;-78
2023/07/29 11:04:30;;;;;;;5.10;3.40;;;;;;;20.38;94.67;100766.50;6188887;23;20021;-77
2023/07/29 11:07:03;;;;;;;4.85;2.60;;;;;;;20.49;91.88;100772.50;6189705;23;20025;-78
2023/07/29 11:09:48;;;;;;;3.15;2.95;;;;;;;20.47;92.67;100776.94;6138069;23;20017;-76
2023/07/29 11:12:33;;;;;;;2.70;2.45;;;;;;;20.57;92.78;100769.97;6162728;23;20456;-76
2023/07/29 11:15:09;;;;;;;2.42;2.25;;;;;;;20.56;92.76;100779.31;6189875;23;20028;-77
2023/07/29 11:17:38;;;;;;;2.55;1.90;;;;;;;20.44;90.90;100778.69;6161568;23;20020;-76
2023/07/29 11:20:07;;;;;;;1.75;1.63;;;;;;;20.38;90.88;100782.72;6189537;23;20451;-76
2023/07/29 11:22:34;;;;;;;3.65;1.67;;;;;;;20.40;90.66;100777.50;6188423;23;20049;-76
2023/07/29 11:25:01;;;;;;;1.50;1.40;;;;;;;20.34;89.86;100777.56;6189412;23;20021;-76